createdAt,value
2019-05-13T00:01:37.597Z,30.90
2019-05-13T00:03:43.979Z,32.10
2019-05-13T00:05:47.140Z,33.00
2019-05-13T00:07:53.972Z,33.30
2019-05-13T00:09:56.700Z,33.70
2019-05-13T00:12:00.511Z,34.10
2019-05-13T00:14:04.538Z,34.70
2019-05-13T00:16:08.318Z,35.40
2019-05-13T00:18:14.301Z,35.80
2019-05-13T00:20:17.733Z,37.50
2019-05-13T00:22:23.538Z,37.70
2019-05-13T00:24:27.447Z,37.80
2019-05-13T00:26:33.617Z,39.00
2019-05-13T00:28:37.094Z,39.20
2019-05-13T00:30:40.908Z,39.90
2019-05-13T00:32:54.529Z,41.90
2019-05-13T00:34:53.424Z,43.10
2019-05-13T00:37:07.625Z,42.40
2019-05-13T00:39:03.964Z,43.00
2019-05-13T00:41:08.062Z,43.00
2019-05-13T00:43:14.042Z,42.50
2019-05-13T00:45:17.361Z,42.90
2019-05-13T00:47:21.132Z,43.40
2019-05-13T00:49:24.936Z,43.20
2019-05-13T00:51:28.782Z,43.20
2019-05-13T00:53:35.128Z,43.50
2019-05-13T00:55:40.732Z,44.60
2019-05-13T00:57:44.112Z,44.60
2019-05-13T00:59:47.912Z,45.00
2019-05-13T01:01:53.290Z,44.80
2019-05-13T01:03:57.264Z,44.40
2019-05-13T01:06:01.126Z,43.90
2019-05-13T01:08:09.350Z,44.40
2019-05-13T01:10:10.549Z,44.20
2019-05-13T01:12:14.421Z,44.00
2019-05-13T01:14:18.174Z,44.70
2019-05-13T01:16:23.414Z,46.00
2019-05-13T01:18:27.545Z,46.90
2019-05-13T01:20:31.367Z,47.80
2019-05-13T01:22:35.209Z,48.20
2019-05-13T01:24:38.987Z,48.50
2019-05-13T01:26:43.794Z,49.00
2019-05-13T01:28:47.836Z,49.90
2019-05-13T01:30:53.802Z,50.10
2019-05-13T01:32:57.161Z,49.90
2019-05-13T01:35:01.049Z,49.80
2019-05-13T01:37:04.782Z,50.10
2019-05-13T01:39:08.606Z,50.30
2019-05-13T01:41:13.667Z,51.60
2019-05-13T01:43:17.540Z,52.00
2019-05-13T01:45:23.895Z,50.90
2019-05-13T01:47:27.082Z,52.50
2019-05-13T01:49:33.459Z,53.80
2019-05-13T01:51:36.446Z,54.00
2019-05-13T01:53:43.865Z,54.00
2019-05-13T01:55:47.371Z,53.70
2019-05-13T01:57:53.213Z,53.70
2019-05-13T01:59:56.770Z,54.60
2019-05-13T02:02:00.547Z,53.80
2019-05-13T02:04:04.454Z,54.50
2019-05-13T02:06:08.362Z,55.10
2019-05-13T02:08:14.332Z,55.50
2019-05-13T02:10:19.358Z,55.30
2019-05-13T02:12:24.135Z,55.30
2019-05-13T02:14:28.098Z,55.40
2019-05-13T02:16:33.821Z,56.20
2019-05-13T02:18:37.155Z,57.80
2019-05-13T02:20:41.029Z,59.70
2019-05-13T02:22:44.823Z,61.80
2019-05-13T02:24:48.667Z,62.70
2019-05-13T02:26:54.301Z,63.60
2019-05-13T02:28:57.845Z,63.60
2019-05-13T02:31:03.086Z,64.40
2019-05-13T02:33:06.852Z,64.70
2019-05-13T02:35:13.874Z,64.80
2019-05-13T02:37:16.125Z,67.90
2019-05-13T02:39:22.310Z,67.50
2019-05-13T02:41:25.469Z,69.40
2019-05-13T02:43:32.957Z,68.40
2019-05-13T02:45:35.115Z,68.80
2019-05-13T02:47:38.892Z,69.00
2019-05-13T02:49:43.833Z,69.20
2019-05-13T02:51:47.747Z,69.50
2019-05-13T02:53:55.044Z,70.00
2019-05-13T02:55:58.511Z,70.80
2019-05-13T02:58:03.218Z,70.70
2019-05-13T03:00:12.496Z,70.90
2019-05-13T03:02:14.724Z,70.00
2019-05-13T03:04:18.565Z,71.60
2019-05-13T03:06:22.489Z,71.50
2019-05-13T03:08:40.854Z,74.40
2019-05-13T03:10:33.106Z,74.50
2019-05-13T03:12:37.041Z,74.50
2019-05-13T03:14:47.461Z,75.90
2019-05-13T03:16:47.892Z,75.80
2019-05-13T03:18:52.450Z,75.40
2019-05-13T03:20:56.500Z,75.50
2019-05-13T03:23:03.116Z,75.70
2019-05-13T03:25:06.634Z,76.80
2019-05-13T03:27:12.852Z,76.00
2019-05-13T03:29:16.991Z,75.50
2019-05-13T03:31:25.608Z,76.20
2019-05-13T03:33:28.603Z,75.70
2019-05-13T03:35:36.738Z,75.70
2019-05-13T03:37:38.538Z,75.00
2019-05-13T03:39:43.632Z,75.10
2019-05-13T03:41:52.820Z,75.30
2019-05-13T03:43:58.251Z,75.10
2019-05-13T03:46:03.938Z,74.90
2019-05-13T03:48:07.845Z,75.00
2019-05-13T03:50:16.551Z,74.40
2019-05-13T03:52:22.511Z,74.90
2019-05-13T03:54:26.024Z,75.00
2019-05-13T03:56:32.807Z,77.20
2019-05-13T03:58:36.997Z,76.20
2019-05-13T04:00:42.694Z,77.50
2019-05-13T04:02:46.847Z,78.00
2019-05-13T04:04:53.235Z,78.20
2019-05-13T04:06:57.527Z,78.20
2019-05-13T04:09:20.597Z,77.40
2019-05-13T04:11:06.907Z,78.50
2019-05-13T04:13:12.662Z,78.80
2019-05-13T04:15:17.081Z,79.40
2019-05-13T04:17:23.965Z,78.50
2019-05-13T04:19:28.438Z,80.60
2019-05-13T04:21:34.001Z,79.80
2019-05-13T04:23:38.080Z,80.50
2019-05-13T04:25:44.648Z,79.80
2019-05-13T04:27:47.508Z,80.10
2019-05-13T04:29:52.805Z,79.90
2019-05-13T04:31:56.796Z,80.40
2019-05-13T04:34:02.202Z,81.70
2019-05-13T04:36:06.355Z,82.80
2019-05-13T04:38:13.066Z,82.40
2019-05-13T04:40:16.214Z,82.50
2019-05-13T04:42:23.120Z,82.40
2019-05-13T04:44:32.420Z,82.70
2019-05-13T04:46:36.680Z,83.60
2019-05-13T04:48:43.892Z,83.30
2019-05-13T04:50:47.719Z,84.00
2019-05-13T04:52:52.999Z,84.60
2019-05-13T04:54:57.082Z,85.10
2019-05-13T04:57:02.972Z,86.80
2019-05-13T04:59:06.507Z,92.40
2019-05-13T05:01:53.211Z,92.10
2019-05-13T05:04:03.429Z,91.90
2019-05-13T05:06:42.424Z,91.80
2019-05-13T05:09:05.854Z,91.70
2019-05-13T05:11:24.678Z,91.50
2019-05-13T05:13:47.760Z,91.60
2019-05-13T05:16:12.991Z,91.50
2019-05-13T05:18:34.222Z,91.60
2019-05-13T05:20:46.162Z,91.80
2019-05-13T05:23:13.060Z,91.40
2019-05-13T05:25:36.294Z,91.60
2019-05-13T05:28:02.120Z,91.40
2019-05-13T05:30:14.325Z,91.20
2019-05-13T05:32:37.695Z,90.90
2019-05-13T05:35:07.585Z,92.60
2019-05-13T05:37:21.697Z,93.00
2019-05-13T05:39:27.246Z,91.90
2019-05-13T05:41:33.131Z,91.80
2019-05-13T05:43:42.338Z,92.00
2019-05-13T05:45:44.444Z,90.60
2019-05-13T05:47:51.310Z,80.20
2019-05-13T05:49:56.675Z,82.20
2019-05-13T05:52:06.457Z,81.70
2019-05-13T05:54:14.426Z,77.60
2019-05-13T05:56:17.754Z,75.60
2019-05-13T05:58:23.440Z,69.60
2019-05-13T06:00:27.596Z,67.20
2019-05-13T06:02:32.906Z,67.90
2019-05-13T06:04:38.743Z,59.50
2019-05-13T06:06:43.722Z,52.40
2019-05-13T06:08:51.616Z,48.50
2019-05-13T06:10:55.173Z,46.10
2019-05-13T06:13:01.865Z,45.40
2019-05-13T06:15:08.928Z,42.30
2019-05-13T06:17:12.908Z,39.60
2019-05-13T06:19:17.961Z,39.70
2019-05-13T06:21:22.387Z,37.60
2019-05-13T06:23:26.434Z,32.70
2019-05-13T06:25:33.592Z,28.80
2019-05-13T06:27:35.941Z,27.60
2019-05-13T06:29:42.012Z,30.10
2019-05-13T06:31:45.750Z,30.00
2019-05-13T06:33:51.471Z,28.70
2019-05-13T06:35:55.771Z,24.70
2019-05-13T06:38:01.421Z,19.20
2019-05-13T06:40:06.678Z,18.80
2019-05-13T06:42:11.675Z,13.10
2019-05-13T06:44:15.944Z,15.60
2019-05-13T06:46:21.878Z,9.40
2019-05-13T06:48:25.629Z,9.70
2019-05-13T06:50:29.614Z,15.50
2019-05-13T06:52:33.547Z,18.40
2019-05-13T06:54:41.635Z,9.60
2019-05-13T06:56:43.018Z,5.40
2019-05-13T06:58:46.889Z,4.30
2019-05-13T07:00:51.612Z,4.60
2019-05-13T07:02:55.818Z,2.40
2019-05-13T07:05:02.081Z,1.10
2019-05-13T07:07:13.120Z,1.80
2019-05-13T07:09:12.000Z,1.60
2019-05-13T07:11:21.031Z,2.30
2019-05-13T07:13:21.970Z,3.40
2019-05-13T07:15:26.020Z,4.00
2019-05-13T07:17:32.210Z,1.00
2019-05-13T07:19:35.576Z,1.00
2019-05-13T07:21:41.761Z,1.00
2019-05-13T07:23:45.122Z,1.00
2019-05-13T07:25:52.358Z,2.50
2019-05-13T07:27:54.607Z,1.50
2019-05-13T07:29:58.493Z,1.00
2019-05-13T07:32:02.644Z,1.00
2019-05-13T07:34:06.701Z,1.00
2019-05-13T07:36:12.766Z,1.00
2019-05-13T07:38:18.246Z,1.00
2019-05-13T07:40:24.142Z,1.00
2019-05-13T07:42:32.343Z,1.00
2019-05-13T07:44:37.084Z,1.00
2019-05-13T07:46:42.706Z,1.00
2019-05-13T07:48:52.118Z,1.00
2019-05-13T07:51:00.750Z,1.00
2019-05-13T07:53:02.692Z,1.00
2019-05-13T07:55:07.983Z,1.00
2019-05-13T07:57:13.788Z,1.00
2019-05-13T07:59:17.993Z,1.00
2019-05-13T08:01:22.324Z,1.00
2019-05-13T08:03:26.365Z,1.00
2019-05-13T08:05:34.474Z,1.00
2019-05-13T08:07:35.987Z,1.00
2019-05-13T08:09:41.845Z,1.00
2019-05-13T08:12:02.185Z,1.00
2019-05-13T08:13:51.818Z,1.00
2019-05-13T08:15:56.053Z,1.00
2019-05-13T08:18:02.026Z,1.00
2019-05-13T08:20:08.665Z,1.00
2019-05-13T08:22:12.592Z,1.00
2019-05-13T08:24:16.497Z,1.00
2019-05-13T08:26:21.729Z,1.00
2019-05-13T08:28:25.960Z,1.00
2019-05-13T08:30:31.830Z,1.00
2019-05-13T08:32:37.947Z,1.00
2019-05-13T08:34:42.789Z,1.00
2019-05-13T08:36:57.540Z,1.00
2019-05-13T08:39:26.855Z,1.00
2019-05-13T08:41:19.363Z,1.00
2019-05-13T08:43:25.885Z,1.00
2019-05-13T08:45:31.536Z,1.00
2019-05-13T08:47:36.269Z,1.00
2019-05-13T08:49:45.552Z,1.00
2019-05-13T08:51:52.972Z,1.00
2019-05-13T08:53:57.464Z,1.00
2019-05-13T08:56:01.798Z,1.00
2019-05-13T08:58:06.048Z,1.00
2019-05-13T09:00:13.481Z,1.00
2019-05-13T09:02:15.962Z,1.00
2019-05-13T09:04:22.111Z,1.00
2019-05-13T09:06:25.526Z,1.00
2019-05-13T09:08:31.799Z,1.00
2019-05-13T09:10:35.030Z,1.00
2019-05-13T09:12:41.029Z,1.00
2019-05-13T09:14:44.765Z,1.00
2019-05-13T09:16:48.611Z,1.00
2019-05-13T09:18:52.682Z,1.00
2019-05-13T09:20:57.564Z,1.00
2019-05-13T09:23:02.069Z,1.00
2019-05-13T09:25:06.198Z,1.00
2019-05-13T09:27:12.049Z,1.00
2019-05-13T09:29:15.775Z,1.00
2019-05-13T09:31:22.073Z,1.00
2019-05-13T09:33:25.359Z,1.00
2019-05-13T09:35:31.483Z,1.00
2019-05-13T09:37:34.947Z,1.00
2019-05-13T09:39:41.279Z,1.00
2019-05-13T09:41:44.864Z,1.00
2019-05-13T09:43:51.309Z,1.00
2019-05-13T09:45:54.649Z,1.00
2019-05-13T09:47:58.575Z,1.00
2019-05-13T09:50:04.629Z,1.00
2019-05-13T09:52:08.356Z,1.00
2019-05-13T09:54:12.407Z,1.00
2019-05-13T09:56:18.341Z,1.00
2019-05-13T09:58:22.649Z,1.00
2019-05-13T10:00:27.049Z,1.00
2019-05-13T10:02:32.202Z,1.00
2019-05-13T10:04:36.370Z,1.00
2019-05-13T10:06:42.075Z,1.00
2019-05-13T10:08:47.293Z,1.00
2019-05-13T10:10:52.816Z,1.00
2019-05-13T10:13:11.289Z,1.00
2019-05-13T10:15:06.263Z,1.00
2019-05-13T10:17:12.712Z,1.00
2019-05-13T10:19:16.097Z,1.00
2019-05-13T10:21:21.785Z,1.00
2019-05-13T10:23:28.234Z,1.00
2019-05-13T10:25:32.718Z,1.00
2019-05-13T10:27:36.842Z,1.00
2019-05-13T10:29:42.440Z,1.00
2019-05-13T10:31:46.594Z,1.00
2019-05-13T10:33:52.284Z,1.00
2019-05-13T10:35:56.458Z,1.00
2019-05-13T10:38:04.407Z,1.00
2019-05-13T10:40:08.471Z,1.00
2019-05-13T10:42:12.572Z,1.00
2019-05-13T10:44:16.584Z,1.00
2019-05-13T10:46:22.105Z,1.00
2019-05-13T10:48:25.998Z,1.00
2019-05-13T10:50:31.663Z,1.00
2019-05-13T10:52:37.690Z,1.00
2019-05-13T10:54:41.811Z,1.00
2019-05-13T10:56:45.697Z,1.00
2019-05-13T10:58:53.105Z,1.00
2019-05-13T11:00:57.836Z,1.00
2019-05-13T11:03:01.794Z,1.00
2019-05-13T11:05:06.922Z,1.00
2019-05-13T11:07:12.107Z,1.00
2019-05-13T11:09:16.139Z,1.00
2019-05-13T11:11:21.855Z,1.00
2019-05-13T11:13:25.945Z,1.00
2019-05-13T11:15:32.740Z,1.00
2019-05-13T11:17:35.994Z,1.00
2019-05-13T11:19:42.214Z,1.00
2019-05-13T11:21:50.671Z,1.00
2019-05-13T11:23:52.287Z,1.00
2019-05-13T11:25:56.529Z,1.00
2019-05-13T11:28:01.638Z,1.00
2019-05-13T11:30:07.794Z,1.00
2019-05-13T11:32:13.285Z,1.00
2019-05-13T11:34:17.524Z,1.00
2019-05-13T11:36:23.411Z,1.00
2019-05-13T11:38:28.755Z,1.00
2019-05-13T11:40:32.744Z,1.00
2019-05-13T11:42:36.831Z,1.00
2019-05-13T11:44:42.915Z,1.00
2019-05-13T11:46:46.365Z,1.00
2019-05-13T11:48:51.906Z,1.00
2019-05-13T11:50:56.064Z,1.00
2019-05-13T11:53:03.272Z,1.00
2019-05-13T11:55:08.600Z,1.00
2019-05-13T11:57:12.783Z,1.00
2019-05-13T11:59:16.946Z,1.00
2019-05-13T12:01:22.962Z,1.00
2019-05-13T12:03:27.096Z,1.00
2019-05-13T12:05:32.664Z,1.00
2019-05-13T12:07:40.242Z,1.00
2019-05-13T12:09:44.313Z,1.00
2019-05-13T12:11:48.354Z,1.00
2019-05-13T12:13:53.062Z,1.00
2019-05-13T12:15:57.098Z,1.00
2019-05-13T12:18:02.905Z,1.00
2019-05-13T12:20:06.816Z,1.00
2019-05-13T12:22:13.197Z,1.00
2019-05-13T12:24:17.057Z,1.00
2019-05-13T12:26:23.818Z,1.00
2019-05-13T12:28:28.166Z,1.00
2019-05-13T12:30:33.824Z,1.00
2019-05-13T12:32:37.778Z,1.00
2019-05-13T12:34:45.750Z,1.00
2019-05-13T12:36:47.738Z,1.00
2019-05-13T12:38:53.617Z,1.00
2019-05-13T12:40:57.416Z,1.00
2019-05-13T12:43:02.281Z,1.00
2019-05-13T12:45:10.044Z,1.00
2019-05-13T12:47:12.634Z,1.00
2019-05-13T12:49:16.565Z,1.00
2019-05-13T12:51:22.738Z,1.00
2019-05-13T12:53:26.066Z,1.00
2019-05-13T12:55:32.919Z,1.00
2019-05-13T12:57:35.729Z,1.00
2019-05-13T12:59:43.052Z,1.00
2019-05-13T13:01:46.581Z,1.00
2019-05-13T13:03:50.489Z,1.00
2019-05-13T13:06:19.527Z,1.00
2019-05-13T13:08:18.429Z,1.00
2019-05-13T13:10:06.496Z,1.00
2019-05-13T13:12:10.483Z,1.00
2019-05-13T13:14:17.287Z,1.00
2019-05-13T13:16:20.030Z,1.00
2019-05-13T13:18:25.960Z,1.00
2019-05-13T13:20:32.666Z,1.00
2019-05-13T13:22:35.545Z,1.00
2019-05-13T13:24:50.510Z,1.00
2019-05-13T13:26:45.284Z,1.00
2019-05-13T13:28:49.270Z,1.00
2019-05-13T13:30:53.406Z,1.00
2019-05-13T13:32:59.073Z,1.00
2019-05-13T13:35:05.391Z,1.00
2019-05-13T13:37:09.191Z,1.00
2019-05-13T13:41:22.746Z,1.00
2019-05-13T13:43:26.978Z,1.00
2019-05-13T13:45:36.796Z,1.00
2019-05-13T13:47:36.152Z,1.00
2019-05-13T13:49:43.585Z,1.00
2019-05-13T13:51:45.322Z,1.00
2019-05-13T13:53:49.064Z,1.00
2019-05-13T13:55:55.992Z,1.00
2019-05-13T13:57:58.387Z,1.00
2019-05-13T14:00:26.583Z,1.00
2019-05-13T14:02:08.338Z,1.00
2019-05-13T14:04:16.405Z,1.00
2019-05-13T14:06:58.554Z,1.00
2019-05-13T14:07:16.603Z,1.00
2019-05-13T14:08:24.612Z,1.00
2019-05-13T14:10:28.533Z,1.00
2019-05-13T14:12:32.556Z,1.00
2019-05-13T14:14:36.537Z,1.00
2019-05-13T14:16:46.645Z,1.00
2019-05-13T14:18:46.040Z,1.00
2019-05-13T14:20:52.667Z,1.00
2019-05-13T14:22:58.038Z,1.00
2019-05-13T14:25:00.899Z,1.00
2019-05-13T14:27:04.829Z,1.00
2019-05-13T14:29:08.715Z,1.00
2019-05-13T14:31:13.355Z,1.00
2019-05-13T14:33:17.448Z,1.00
2019-05-13T14:35:22.062Z,1.00
2019-05-13T14:37:26.043Z,1.00
2019-05-13T14:39:31.872Z,1.00
2019-05-13T14:41:35.404Z,1.00
2019-05-13T14:43:39.174Z,1.00
2019-05-13T14:45:43.122Z,1.00
2019-05-13T14:47:47.008Z,1.00
2019-05-13T14:49:52.118Z,1.00
2019-05-13T14:51:56.566Z,1.00
2019-05-13T14:54:02.562Z,1.00
2019-05-13T14:56:06.249Z,1.00
2019-05-13T14:58:10.022Z,1.00
2019-05-13T15:00:14.102Z,1.00
2019-05-13T15:02:17.918Z,1.00
2019-05-13T15:04:32.712Z,1.00
2019-05-13T15:06:36.857Z,1.00
2019-05-13T15:08:42.176Z,1.00
2019-05-13T15:10:47.226Z,1.00
2019-05-13T15:12:52.362Z,1.00
2019-05-13T15:14:56.577Z,1.00
2019-05-13T15:17:04.155Z,1.00
2019-05-13T15:19:06.166Z,1.00
2019-05-13T15:21:12.140Z,1.00
2019-05-13T15:23:15.413Z,1.00
2019-05-13T15:25:19.247Z,1.00
2019-05-13T15:27:22.983Z,1.00
2019-05-13T15:29:26.764Z,1.00
2019-05-13T15:31:31.562Z,1.00
2019-05-13T15:33:35.537Z,1.00
2019-05-13T15:35:41.957Z,1.00
2019-05-13T15:37:46.594Z,1.00
2019-05-13T15:39:51.900Z,1.00
2019-05-13T15:41:56.902Z,1.00
2019-05-13T15:44:03.389Z,1.00
2019-05-13T15:46:08.937Z,1.00
2019-05-13T15:48:14.108Z,1.00
2019-05-13T15:50:17.911Z,1.00
2019-05-13T15:52:22.816Z,1.00
2019-05-13T15:54:28.191Z,1.00
2019-05-13T15:56:39.568Z,1.00
2019-05-13T15:58:44.556Z,1.00
2019-05-13T16:00:48.793Z,1.00
2019-05-13T16:02:54.640Z,1.00
2019-05-13T16:05:05.342Z,1.00
2019-05-13T16:07:11.989Z,1.00
2019-05-13T16:09:16.772Z,1.00
2019-05-13T16:11:21.920Z,1.00
2019-05-13T16:13:34.941Z,1.00
2019-05-13T16:15:49.998Z,1.00
2019-05-13T16:17:45.251Z,1.00
2019-05-13T16:19:53.173Z,1.00
2019-05-13T16:21:55.170Z,1.00
2019-05-13T16:24:02.505Z,1.00
2019-05-13T16:26:04.858Z,1.00
2019-05-13T16:28:09.242Z,1.00
2019-05-13T16:30:15.101Z,1.00
2019-05-13T16:32:22.411Z,1.00
2019-05-13T16:34:26.515Z,1.00
2019-05-13T16:36:35.262Z,1.00
2019-05-13T16:38:44.110Z,1.00
2019-05-13T16:40:54.792Z,1.00
2019-05-13T16:42:55.356Z,1.00
2019-05-13T16:45:01.311Z,1.00
2019-05-13T16:47:05.274Z,1.00
2019-05-13T16:49:17.061Z,1.00
2019-05-13T16:51:21.626Z,1.00
2019-05-13T16:53:26.106Z,1.00
2019-05-13T16:55:30.074Z,1.00
2019-05-13T16:57:34.202Z,1.00
2019-05-13T16:59:37.923Z,1.00
2019-05-13T17:01:42.120Z,1.00
2019-05-13T17:03:51.172Z,1.00
2019-05-13T17:06:02.564Z,1.00
2019-05-13T17:08:07.262Z,1.00
2019-05-13T17:10:12.474Z,1.00
2019-05-13T17:12:16.749Z,1.00
2019-05-13T17:14:25.122Z,1.00
2019-05-13T17:16:26.109Z,1.00
2019-05-13T17:18:32.132Z,1.00
2019-05-13T17:20:38.273Z,1.00
2019-05-13T17:22:46.570Z,1.00
2019-05-13T17:24:52.005Z,1.00
2019-05-13T17:26:55.879Z,1.00
2019-05-13T17:29:01.392Z,1.00
2019-05-13T17:31:08.497Z,1.00
2019-05-13T17:33:13.905Z,1.00
2019-05-13T17:35:17.722Z,1.00
2019-05-13T17:37:22.148Z,1.00
2019-05-13T17:39:26.128Z,1.00
2019-05-13T17:41:31.950Z,1.00
2019-05-13T17:43:41.171Z,1.00
2019-05-13T17:45:42.203Z,1.00
2019-05-13T17:47:47.101Z,1.00
2019-05-13T17:49:52.104Z,1.00
2019-05-13T17:51:56.366Z,1.00
2019-05-13T17:54:01.397Z,1.00
2019-05-13T17:56:06.097Z,1.00
2019-05-13T17:58:11.671Z,1.00
2019-05-13T18:00:16.797Z,1.00
2019-05-13T18:02:20.483Z,1.00
2019-05-13T18:04:27.762Z,1.00
2019-05-13T18:06:32.424Z,1.00
2019-05-13T18:08:41.211Z,1.00
2019-05-13T18:10:45.080Z,1.00
2019-05-13T18:13:04.519Z,1.00
2019-05-13T18:14:57.622Z,1.00
2019-05-13T18:17:06.583Z,1.00
2019-05-13T18:19:08.802Z,1.00
2019-05-13T18:21:15.586Z,1.00
2019-05-13T18:23:22.708Z,1.00
2019-05-13T18:25:26.403Z,1.00
2019-05-13T18:27:32.349Z,1.00
2019-05-13T18:29:36.444Z,1.00
2019-05-13T18:31:42.003Z,1.00
2019-05-13T18:33:47.993Z,1.00
2019-05-13T18:35:52.573Z,1.00
2019-05-13T18:37:57.316Z,1.00
2019-05-13T18:40:02.579Z,1.00
2019-05-13T18:42:08.271Z,1.00
2019-05-13T18:44:12.831Z,1.00
2019-05-13T18:46:18.086Z,1.00
2019-05-13T18:48:22.065Z,1.00
2019-05-13T18:50:27.882Z,1.00
2019-05-13T18:52:32.067Z,1.00
2019-05-13T18:54:36.370Z,1.00
2019-05-13T18:56:41.602Z,1.00
2019-05-13T18:58:46.461Z,1.00
2019-05-13T19:00:52.186Z,1.00
2019-05-13T19:02:55.923Z,1.00
2019-05-13T19:05:06.833Z,1.00
2019-05-13T19:07:11.586Z,1.00
2019-05-13T19:09:15.756Z,1.00
2019-05-13T19:11:22.251Z,1.00
2019-05-13T19:13:26.425Z,1.00
2019-05-13T19:15:35.875Z,1.00
2019-05-13T19:17:41.560Z,1.00
2019-05-13T19:19:54.683Z,1.00
2019-05-13T19:21:55.944Z,1.00
2019-05-13T19:24:02.027Z,1.00
2019-05-13T19:26:07.879Z,1.00
2019-05-13T19:28:11.927Z,1.00
2019-05-13T19:30:16.106Z,1.00
2019-05-13T19:32:21.801Z,1.00
2019-05-13T19:34:25.832Z,1.00
2019-05-13T19:36:29.597Z,1.00
2019-05-13T19:38:33.377Z,1.00
2019-05-13T19:40:37.148Z,1.00
2019-05-13T19:42:42.901Z,1.00
2019-05-13T19:44:46.594Z,1.00
2019-05-13T19:46:52.345Z,1.00
2019-05-13T19:48:55.748Z,1.00
2019-05-13T19:51:01.565Z,1.00
2019-05-13T19:53:04.926Z,1.00
2019-05-13T19:55:11.864Z,1.00
2019-05-13T19:57:16.788Z,1.00
2019-05-13T19:59:21.602Z,1.00
2019-05-13T20:01:25.373Z,1.00
2019-05-13T20:03:31.515Z,1.00
2019-05-13T20:05:35.622Z,1.00
2019-05-13T20:07:41.761Z,1.00
2019-05-13T20:09:45.339Z,1.00
2019-05-13T20:11:55.044Z,1.00
2019-05-13T20:13:56.373Z,1.00
2019-05-13T20:16:01.470Z,1.00
2019-05-13T20:18:05.592Z,1.00
2019-05-13T20:20:12.153Z,1.00
2019-05-13T20:22:15.148Z,1.00
2019-05-13T20:24:18.955Z,1.00
2019-05-13T20:26:25.114Z,1.00
2019-05-13T20:28:33.531Z,1.00
2019-05-13T20:30:37.313Z,1.00
2019-05-13T20:32:41.319Z,1.00
2019-05-13T20:34:45.083Z,1.00
2019-05-13T20:36:51.631Z,1.00
2019-05-13T20:38:55.525Z,1.00
2019-05-13T20:41:01.288Z,1.00
2019-05-13T20:43:04.878Z,1.00
2019-05-13T20:45:08.806Z,1.00
2019-05-13T20:47:12.506Z,1.00
2019-05-13T20:49:16.265Z,1.00
2019-05-13T20:51:21.825Z,1.00
2019-05-13T20:53:25.236Z,1.00
2019-05-13T20:55:28.982Z,1.00
2019-05-13T20:57:32.920Z,1.00
2019-05-13T20:59:36.878Z,1.00
2019-05-13T21:01:41.869Z,1.00
2019-05-13T21:03:45.866Z,1.00
2019-05-13T21:05:51.888Z,1.00
2019-05-13T21:07:55.079Z,1.00
2019-05-13T21:10:01.277Z,1.00
2019-05-13T21:12:04.497Z,1.00
2019-05-13T21:14:12.469Z,1.00
2019-05-13T21:16:18.272Z,1.00
2019-05-13T21:18:22.283Z,1.00
2019-05-13T21:20:26.477Z,1.00
2019-05-13T21:22:31.705Z,1.00
2019-05-13T21:24:35.964Z,1.00
2019-05-13T21:26:41.839Z,1.00
2019-05-13T21:28:44.986Z,1.00
2019-05-13T21:30:48.809Z,1.00
2019-05-13T21:32:53.846Z,1.00
2019-05-13T21:34:57.484Z,1.00
2019-05-13T21:37:02.310Z,1.00
2019-05-13T21:39:06.792Z,1.00
2019-05-13T21:41:11.790Z,1.00
2019-05-13T21:43:15.605Z,1.00
2019-05-13T21:45:19.329Z,1.00
2019-05-13T21:47:23.112Z,1.00
2019-05-13T21:49:26.830Z,1.00
2019-05-13T21:51:31.501Z,1.00
2019-05-13T21:53:36.947Z,1.00
2019-05-13T21:55:42.227Z,1.00
2019-05-13T21:57:46.349Z,1.00
2019-05-13T21:59:51.632Z,1.00
2019-05-13T22:01:55.571Z,1.00
2019-05-13T22:04:01.574Z,1.00
2019-05-13T22:06:04.828Z,1.00
2019-05-13T22:08:08.582Z,1.00
2019-05-13T22:10:12.395Z,1.00
2019-05-13T22:12:16.143Z,1.00
2019-05-13T22:14:19.941Z,1.00
2019-05-13T22:16:23.614Z,1.00
2019-05-13T22:18:27.345Z,1.00
2019-05-13T22:20:33.039Z,1.00
2019-05-13T22:22:36.572Z,1.00
2019-05-13T22:24:41.811Z,1.00
2019-05-13T22:26:45.782Z,1.00
2019-05-13T22:28:51.230Z,1.00
2019-05-13T22:30:55.144Z,1.00
2019-05-13T22:32:58.932Z,1.00
2019-05-13T22:35:02.652Z,1.00
2019-05-13T22:37:08.454Z,1.00
2019-05-13T22:39:11.947Z,1.70
2019-05-13T22:41:15.756Z,2.30
2019-05-13T22:43:21.200Z,2.90
2019-05-13T22:45:25.088Z,3.10
2019-05-13T22:47:31.340Z,3.90
2019-05-13T22:49:34.322Z,3.90
2019-05-13T22:51:37.994Z,4.10
2019-05-13T22:53:42.174Z,4.50
2019-05-13T22:55:46.249Z,4.70
2019-05-13T22:57:51.094Z,4.60
2019-05-13T22:59:54.761Z,4.90
2019-05-13T23:01:58.569Z,5.10
2019-05-13T23:04:02.437Z,5.40
2019-05-13T23:06:06.160Z,5.60
2019-05-13T23:08:11.263Z,6.40
2019-05-13T23:10:15.354Z,6.70
2019-05-13T23:12:21.159Z,6.80
2019-05-13T23:14:24.519Z,6.70
2019-05-13T23:16:28.214Z,6.90
2019-05-13T23:18:31.998Z,7.20
2019-05-13T23:20:35.765Z,7.80
2019-05-13T23:22:41.315Z,8.50
2019-05-13T23:24:44.738Z,8.70
2019-05-13T23:26:48.514Z,8.20
2019-05-13T23:28:52.352Z,8.70
2019-05-13T23:30:56.005Z,8.90
2019-05-13T23:33:02.086Z,8.70
2019-05-13T23:35:07.658Z,8.40
2019-05-13T23:37:11.589Z,8.20
2019-05-13T23:39:15.236Z,5.90
2019-05-13T23:41:18.846Z,7.60
2019-05-13T23:43:23.674Z,8.20
2019-05-13T23:45:27.569Z,9.40
2019-05-13T23:47:31.316Z,9.20
2019-05-13T23:49:35.072Z,9.90
2019-05-13T23:51:38.835Z,10.20
2019-05-13T23:53:42.604Z,10.10
2019-05-13T23:55:46.321Z,10.60
2019-05-13T23:57:52.448Z,10.70
2019-05-13T23:59:56.297Z,11.20
